Time;durP1;ratioP1;P1;durP2;ratioP2;P2;SDS_P1;SDS_P2;PMS_P1;PMS_P2;Temp;Humidity;BMP_temperature;BMP_pressure;BME280_temperature;BME280_humidity;BME280_pressure;Samples;Min_cycle;Max_cycle;Signal;HPM_P1;HPM_P2
2023/08/05 00:00:21;;;;;;;5.90;4.20;;;;;;;;;;4978889;28;20457;-89
2023/08/05 00:02:50;;;;;;;9.50;4.60;;;;;;;;;;4980487;28;20881;-90
2023/08/05 00:05:16;;;;;;;6.37;4.40;;;;;;;;;;4979520;28;20422;-90
2023/08/05 00:07:42;;;;;;;7.00;4.90;;;;;;;;;;4998603;28;20454;-90
2023/08/05 00:10:08;;;;;;;6.97;4.30;;;;;;;;;;4973296;28;20925;-89
2023/08/05 00:12:38;;;;;;;12.47;5.10;;;;;;;;;;4986046;28;20414;-89
2023/08/05 00:15:04;;;;;;;6.67;4.43;;;;;;;;;;4973626;28;20466;-90
2023/08/05 00:17:30;;;;;;;7.57;4.27;;;;;;;;;;4981792;28;20436;-90
2023/08/05 00:19:56;;;;;;;7.70;5.17;;;;;;;;;;4979054;28;20933;-90
2023/08/05 00:22:25;;;;;;;5.10;4.30;;;;;;;;;;4988277;28;20416;-90
2023/08/05 00:24:51;;;;;;;9.57;4.80;;;;;;;;;;4981874;28;20462;-90
2023/08/05 00:27:18;;;;;;;5.83;4.50;;;;;;;;;;4983774;28;22017;-90
2023/08/05 00:29:46;;;;;;;5.77;4.40;;;;;;;;;;4980710;28;20438;-90
2023/08/05 00:32:12;;;;;;;6.30;4.43;;;;;;;;;;4983538;28;20418;-91
2023/08/05 00:34:38;;;;;;;8.23;5.17;;;;;;;;;;4966319;28;20469;-91
2023/08/05 00:37:04;;;;;;;5.50;4.40;;;;;;;;;;4977575;28;20481;-88
2023/08/05 00:39:30;;;;;;;5.13;3.83;;;;;;;;;;4977149;28;20460;-88
2023/08/05 00:41:56;;;;;;;7.67;5.07;;;;;;;;;;4981673;28;20426;-89
2023/08/05 00:44:23;;;;;;;4.40;4.00;;;;;;;;;;4981238;28;20421;-91
2023/08/05 00:46:51;;;;;;;4.60;4.07;;;;;;;;;;4979204;28;20418;-89
2023/08/05 00:49:17;;;;;;;4.70;3.97;;;;;;;;;;4983897;28;20469;-89
2023/08/05 00:51:44;;;;;;;9.37;5.27;;;;;;;;;;4977153;28;20434;-89
2023/08/05 00:54:10;;;;;;;9.53;3.87;;;;;;;;;;4980261;28;20465;-89
2023/08/05 00:56:36;;;;;;;5.93;4.50;;;;;;;;;;4980135;28;20457;-88
2023/08/05 00:59:03;;;;;;;9.13;4.33;;;;;;;;;;4987057;28;20835;-88
2023/08/05 01:01:29;;;;;;;6.57;4.30;;;;;;;;;;4974192;28;20422;-87
2023/08/05 01:03:55;;;;;;;5.20;4.60;;;;;;;;;;4982791;28;20492;-90
2023/08/05 01:06:21;;;;;;;6.83;4.20;;;;;;;;;;4979931;28;20426;-88
2023/08/05 01:08:47;;;;;;;6.40;3.93;;;;;;;;;;4974789;28;20441;-89
2023/08/05 01:11:13;;;;;;;4.43;3.93;;;;;;;;;;4983190;28;20445;-89
2023/08/05 01:13:42;;;;;;;7.13;3.80;;;;;;;;;;4982069;28;20435;-89
2023/08/05 01:16:08;;;;;;;4.90;4.47;;;;;;;;;;4967434;28;20422;-89
2023/08/05 01:18:35;;;;;;;7.00;4.37;;;;;;;;;;4985990;28;20980;-89
2023/08/05 01:21:01;;;;;;;6.70;4.33;;;;;;;;;;4979708;28;20505;-88
2023/08/05 01:23:38;;;;;;;6.87;4.23;;;;;;;;;;4980266;28;20484;-89
2023/08/05 01:26:05;;;;;;;5.83;3.97;;;;;;;;;;4980080;28;20528;-88
2023/08/05 01:28:31;;;;;;;6.17;4.00;;;;;;;;;;4985747;28;20414;-89
2023/08/05 01:30:58;;;;;;;5.20;4.70;;;;;;;;;;4981934;28;20433;-89
2023/08/05 01:33:24;;;;;;;6.73;3.90;;;;;;;;;;4984715;28;20475;-89
2023/08/05 01:35:50;;;;;;;5.27;3.60;;;;;;;;;;4981784;28;20469;-89
2023/08/05 01:38:16;;;;;;;5.13;4.07;;;;;;;;;;4984538;28;20422;-88
2023/08/05 01:40:42;;;;;;;5.20;3.47;;;;;;;;;;4981382;28;20502;-89
2023/08/05 01:43:08;;;;;;;4.90;3.63;;;;;;;;;;4984043;28;20430;-88
2023/08/05 01:45:34;;;;;;;5.70;3.60;;;;;;;;;;4981019;28;20424;-89
2023/08/05 01:48:00;;;;;;;6.43;3.70;;;;;;;;;;4976235;28;20449;-89
2023/08/05 01:50:26;;;;;;;7.67;4.47;;;;;;;;;;4976171;28;20838;-90
2023/08/05 01:52:53;;;;;;;4.13;3.70;;;;;;;;;;4975275;28;20414;-89
2023/08/05 01:55:19;;;;;;;5.20;3.67;;;;;;;;;;4997102;28;20453;-90
2023/08/05 01:57:45;;;;;;;5.97;4.63;;;;;;;;;;4972530;28;20402;-89
2023/08/05 02:00:11;;;;;;;5.20;3.87;;;;;;;;;;4980147;28;20430;-89
2023/08/05 02:02:37;;;;;;;7.30;4.40;;;;;;;;;;4970048;28;20442;-89
2023/08/05 02:05:03;;;;;;;6.20;4.90;;;;;;;;;;4998466;28;20488;-90
2023/08/05 02:07:29;;;;;;;7.30;4.53;;;;;;;;;;4984187;28;20445;-89
2023/08/05 02:09:55;;;;;;;6.63;4.17;;;;;;;;;;4993283;28;20937;-90
2023/08/05 02:12:21;;;;;;;6.57;4.10;;;;;;;;;;4980683;28;20437;-89
2023/08/05 02:14:47;;;;;;;6.03;4.97;;;;;;;;;;4980858;28;20512;-89
2023/08/05 02:17:13;;;;;;;9.10;4.00;;;;;;;;;;4980073;28;20434;-89
2023/08/05 02:19:39;;;;;;;7.70;4.47;;;;;;;;;;4965815;28;20449;-89
2023/08/05 02:22:19;;;;;;;16.37;4.83;;;;;;;;;;4988246;28;20406;-89
2023/08/05 02:24:45;;;;;;;6.50;3.70;;;;;;;;;;4992277;28;20445;-90
2023/08/05 02:27:17;;;;;;;6.57;4.90;;;;;;;;;;4970302;28;20426;-89
2023/08/05 02:29:43;;;;;;;6.10;3.27;;;;;;;;;;4985325;28;20429;-90
2023/08/05 02:32:09;;;;;;;6.47;4.57;;;;;;;;;;4982897;28;20853;-90
2023/08/05 02:34:35;;;;;;;5.20;3.90;;;;;;;;;;4986435;28;20482;-89
2023/08/05 02:37:01;;;;;;;5.93;4.27;;;;;;;;;;4966628;28;20413;-89
2023/08/05 02:39:27;;;;;;;6.93;4.43;;;;;;;;;;4970482;28;20450;-89
2023/08/05 02:41:53;;;;;;;6.03;4.87;;;;;;;;;;4982814;28;20472;-89
2023/08/05 02:44:19;;;;;;;9.00;4.67;;;;;;;;;;4969121;28;20516;-89
2023/08/05 02:46:45;;;;;;;7.67;4.50;;;;;;;;;;4962087;28;20430;-89
2023/08/05 02:49:11;;;;;;;7.80;4.33;;;;;;;;;;4970920;28;20446;-90
2023/08/05 02:51:37;;;;;;;6.17;4.70;;;;;;;;;;4981700;28;20999;-90
2023/08/05 02:54:03;;;;;;;6.60;5.07;;;;;;;;;;4972939;28;20505;-90
2023/08/05 02:56:29;;;;;;;7.83;5.27;;;;;;;;;;4968961;28;20592;-89
2023/08/05 02:58:56;;;;;;;5.73;4.30;;;;;;;;;;4988642;28;20438;-89
2023/08/05 03:01:22;;;;;;;9.70;4.87;;;;;;;;;;4978953;28;20453;-90
2023/08/05 03:03:47;;;;;;;5.40;4.57;;;;;;;;;;4987100;28;20995;-89
2023/08/05 03:06:13;;;;;;;6.33;4.53;;;;;;;;;;4982599;28;20468;-90
2023/08/05 03:08:39;;;;;;;7.73;5.17;;;;;;;;;;4977739;28;20960;-89
2023/08/05 03:11:05;;;;;;;6.97;4.83;;;;;;;;;;4967867;28;20442;-89
2023/08/05 03:13:31;;;;;;;7.57;5.30;;;;;;;;;;4959668;28;20458;-90
2023/08/05 03:15:57;;;;;;;6.20;4.83;;;;;;;;;;4979958;28;20410;-89
2023/08/05 03:18:23;;;;;;;7.10;4.10;;;;;;;;;;4978543;28;20434;-89
2023/08/05 03:20:49;;;;;;;6.30;4.13;;;;;;;;;;4983294;28;21091;-89
2023/08/05 03:23:15;;;;;;;6.07;4.90;;;;;;;;;;4967949;28;20440;-89
2023/08/05 03:25:41;;;;;;;8.77;4.60;;;;;;;;;;4980604;28;20423;-89
2023/08/05 03:35:53;;;;;;;7.13;4.93;;;;;;;;;;5010207;28;20499;-90
2023/08/05 03:38:19;;;;;;;7.50;4.70;;;;;;;;;;4990086;28;20460;-89
2023/08/05 03:40:45;;;;;;;13.70;5.63;;;;;;;;;;4992040;28;20424;-88
2023/08/05 03:43:11;;;;;;;11.20;4.90;;;;;;;;;;4987534;28;20429;-89
2023/08/05 03:45:39;;;;;;;7.20;5.63;;;;;;;;;;5002011;28;20465;-89
2023/08/05 03:48:05;;;;;;;5.70;4.32;;;;;;;;;;4986183;28;20428;-88
2023/08/05 03:50:31;;;;;;;8.50;5.60;;;;;;;;;;4972158;28;20183;-89
2023/08/05 03:52:57;;;;;;;9.60;4.80;;;;;;;;;;4989063;28;20429;-88
2023/08/05 03:55:24;;;;;;;7.00;5.00;;;;;;;;;;4988662;28;20516;-88
2023/08/05 03:57:50;;;;;;;6.27;4.70;;;;;;;;;;4991921;28;20427;-91
2023/08/05 04:00:17;;;;;;;11.80;5.37;;;;;;;;;;5002999;28;20535;-89
2023/08/05 04:05:19;;;;;;;6.90;5.40;;;;;;;;;;5176797;22;20513;-88
2023/08/05 04:07:46;;;;;;;6.30;5.20;;;;;;;;;;5025258;28;20433;-88
2023/08/05 04:10:13;;;;;;;5.50;4.90;;;;;;;;;;5026667;28;20419;-89
2023/08/05 04:12:39;;;;;;;11.00;5.83;;;;;;;;;;5026727;28;20972;-88
2023/08/05 04:15:07;;;;;;;7.70;5.43;;;;;;;;;;5312780;22;22281;-90
2023/08/05 04:17:33;;;;;;;10.07;5.30;;;;;;;;;;5040739;28;20471;-90
2023/08/05 04:20:00;;;;;;;8.50;6.53;;;;;;;;;;5024372;28;20423;-88
2023/08/05 04:22:27;;;;;;;10.93;5.90;;;;;;;;;;5024142;28;20439;-89
2023/08/05 04:24:53;;;;;;;6.83;4.57;;;;;;;;;;5021104;28;20416;-89
2023/08/05 04:27:19;;;;;;;7.80;5.73;;;;;;;;;;5005529;28;20447;-88
2023/08/05 04:29:46;;;;;;;8.10;4.87;;;;;;;;;;5026233;28;20419;-89
2023/08/05 04:32:12;;;;;;;5.73;4.60;;;;;;;;;;5021785;28;20443;-88
2023/08/05 04:34:41;;;;;;;9.27;4.77;;;;;;;;;;5023632;28;20459;-89
2023/08/05 04:37:17;;;;;;;6.80;5.33;;;;;;;;;;5007693;28;20450;-89
2023/08/05 04:39:43;;;;;;;9.40;6.27;;;;;;;;;;5022376;28;20449;-89
2023/08/05 04:42:10;;;;;;;5.83;4.73;;;;;;;;;;5039803;28;20421;-88
2023/08/05 04:44:37;;;;;;;11.63;5.90;;;;;;;;;;5019124;28;20579;-89
2023/08/05 04:47:03;;;;;;;6.37;5.13;;;;;;;;;;5010485;28;20436;-89
2023/08/05 04:49:29;;;;;;;8.13;4.93;;;;;;;;;;5010827;28;20807;-89
2023/08/05 04:51:55;;;;;;;5.87;5.13;;;;;;;;;;5013318;28;20419;-89
2023/08/05 04:54:23;;;;;;;7.80;4.87;;;;;;;;;;5037506;28;20466;-89
2023/08/05 04:56:49;;;;;;;8.73;5.40;;;;;;;;;;5021137;28;20419;-89
2023/08/05 04:59:15;;;;;;;8.00;6.60;;;;;;;;;;5020056;28;20501;-88
2023/08/05 05:01:41;;;;;;;7.33;4.80;;;;;;;;;;5026705;28;20415;-89
2023/08/05 05:04:06;;;;;;;6.20;4.93;;;;;;;;;;5015604;28;20431;-90
2023/08/05 05:06:32;;;;;;;8.50;5.30;;;;;;;;;;5027881;28;20439;-89
2023/08/05 05:08:58;;;;;;;7.90;4.70;;;;;;;;;;5021321;28;20450;-89
2023/08/05 05:11:24;;;;;;;6.87;4.63;;;;;;;;;;5040977;28;20404;-89
2023/08/05 05:13:52;;;;;;;8.43;5.10;;;;;;;;;;5021776;28;20550;-90
2023/08/05 05:16:18;;;;;;;6.50;5.00;;;;;;;;;;5022798;28;20443;-89
2023/08/05 05:18:44;;;;;;;8.23;6.40;;;;;;;;;;5022718;28;20423;-88
2023/08/05 05:21:10;;;;;;;5.97;4.70;;;;;;;;;;5021987;28;20439;-89
2023/08/05 05:23:36;;;;;;;7.40;4.97;;;;;;;;;;5021112;28;20467;-88
2023/08/05 05:26:02;;;;;;;7.03;4.83;;;;;;;;;;5025689;28;20523;-89
2023/08/05 05:28:28;;;;;;;5.80;4.67;;;;;;;;;;5023663;28;20455;-88
2023/08/05 05:30:54;;;;;;;8.23;4.50;;;;;;;;;;5026339;28;20438;-89
2023/08/05 05:33:20;;;;;;;5.77;4.63;;;;;;;;;;5017533;28;20936;-88
2023/08/05 05:35:49;;;;;;;7.23;4.67;;;;;;;;;;5015451;28;20400;-89
2023/08/05 05:38:15;;;;;;;8.60;4.87;;;;;;;;;;5022531;28;20557;-88
2023/08/05 05:40:41;;;;;;;7.37;5.07;;;;;;;;;;5011368;28;20456;-89
2023/08/05 05:43:08;;;;;;;4.80;4.17;;;;;;;;;;5016535;28;20519;-89
2023/08/05 05:45:37;;;;;;;6.83;5.00;;;;;;;;;;5023745;28;20412;-89
2023/08/05 05:48:03;;;;;;;6.93;4.50;;;;;;;;;;5022117;28;20439;-89
2023/08/05 05:50:29;;;;;;;7.10;4.53;;;;;;;;;;5012418;28;20438;-89
2023/08/05 05:52:55;;;;;;;5.83;4.40;;;;;;;;;;5012642;28;20759;-89
2023/08/05 05:55:22;;;;;;;7.13;4.67;;;;;;;;;;5014761;28;20439;-90
2023/08/05 05:57:48;;;;;;;7.80;5.00;;;;;;;;;;5039833;28;20447;-88
2023/08/05 06:00:14;;;;;;;6.30;4.53;;;;;;;;;;5013710;28;20439;-89
2023/08/05 06:02:41;;;;;;;9.37;4.57;;;;;;;;;;5010728;28;20432;-89
2023/08/05 06:05:07;;;;;;;11.13;5.90;;;;;;;;;;5010252;28;20438;-89
2023/08/05 06:07:33;;;;;;;6.90;4.60;;;;;;;;;;5008186;28;20451;-89
2023/08/05 06:09:59;;;;;;;4.30;3.90;;;;;;;;;;5003381;28;21030;-88
2023/08/05 06:12:30;;;;;;;9.87;4.63;;;;;;;;;;5009013;28;20448;-89
2023/08/05 06:14:56;;;;;;;6.13;4.10;;;;;;;;;;4990016;28;20452;-89
2023/08/05 06:17:22;;;;;;;5.93;4.40;;;;;;;;;;5008289;28;20526;-89
2023/08/05 06:19:48;;;;;;;5.77;4.10;;;;;;;;;;4993646;28;20588;-90
2023/08/05 06:22:14;;;;;;;6.37;3.73;;;;;;;;;;4990619;28;20471;-90
2023/08/05 06:24:40;;;;;;;6.70;3.77;;;;;;;;;;5016596;28;20405;-90
2023/08/05 06:27:06;;;;;;;4.93;3.80;;;;;;;;;;5020417;28;20529;-88
2023/08/05 06:29:32;;;;;;;5.17;4.43;;;;;;;;;;5016679;28;20476;-89
2023/08/05 06:31:58;;;;;;;4.60;4.00;;;;;;;;;;5003366;28;20450;-88
2023/08/05 06:34:24;;;;;;;5.20;3.23;;;;;;;;;;5012400;28;20491;-89
2023/08/05 06:36:50;;;;;;;7.73;3.43;;;;;;;;;;5006193;28;20460;-89
2023/08/05 06:39:16;;;;;;;5.37;3.43;;;;;;;;;;5021232;28;20439;-90
2023/08/05 06:41:51;;;;;;;4.03;3.63;;;;;;;;;;4999725;28;20395;-88
2023/08/05 06:44:17;;;;;;;9.23;3.43;;;;;;;;;;5011559;28;20494;-90
2023/08/05 06:46:43;;;;;;;10.30;3.90;;;;;;;;;;5022104;28;20475;-90
2023/08/05 06:49:10;;;;;;;4.57;3.83;;;;;;;;;;5026840;28;20964;-90
2023/08/05 06:51:37;;;;;;;9.07;4.23;;;;;;;;;;5020002;28;20463;-90
2023/08/05 06:54:03;;;;;;;8.20;4.23;;;;;;;;;;5015026;28;20463;-90
2023/08/05 06:56:29;;;;;;;6.10;3.43;;;;;;;;;;5042217;28;20605;-90
2023/08/05 06:58:55;;;;;;;5.27;3.97;;;;;;;;;;5020724;28;20460;-90
2023/08/05 07:01:21;;;;;;;4.77;3.63;;;;;;;;;;5024931;28;20438;-89
2023/08/05 07:03:49;;;;;;;4.60;4.10;;;;;;;;;;5014534;28;20477;-90
2023/08/05 07:06:15;;;;;;;6.63;4.10;;;;;;;;;;5007137;28;20425;-90
2023/08/05 07:08:41;;;;;;;4.83;3.77;;;;;;;;;;4987605;28;20511;-89
2023/08/05 07:11:08;;;;;;;5.33;3.67;;;;;;;;;;4990275;28;20436;-89
2023/08/05 07:13:34;;;;;;;5.07;4.10;;;;;;;;;;4967786;28;20474;-89
2023/08/05 07:16:00;;;;;;;4.87;3.93;;;;;;;;;;4966240;28;20449;-90
2023/08/05 07:18:26;;;;;;;6.90;4.70;;;;;;;;;;4972303;28;20593;-89
2023/08/05 07:20:52;;;;;;;4.97;4.47;;;;;;;;;;4982242;28;20491;-89
2023/08/05 07:23:18;;;;;;;6.67;4.30;;;;;;;;;;4948754;28;20523;-89
2023/08/05 07:25:44;;;;;;;5.57;4.13;;;;;;;;;;4969411;28;20434;-89
2023/08/05 07:28:10;;;;;;;15.90;4.37;;;;;;;;;;4945114;28;20419;-90
2023/08/05 07:30:36;;;;;;;5.60;4.23;;;;;;;;;;4955248;28;20428;-89
2023/08/05 07:33:04;;;;;;;4.73;4.20;;;;;;;;;;4947789;28;20402;-89
2023/08/05 07:35:32;;;;;;;6.07;4.30;;;;;;;;;;4981691;28;20475;-89
2023/08/05 07:37:58;;;;;;;7.20;3.53;;;;;;;;;;5010930;28;20435;-88
2023/08/05 07:40:25;;;;;;;3.63;3.17;;;;;;;;;;4981813;28;20457;-90
2023/08/05 07:42:53;;;;;;;4.87;4.10;;;;;;;;;;4965488;28;20853;-90
2023/08/05 07:45:21;;;;;;;4.60;3.90;;;;;;;;;;4968765;28;20469;-90
2023/08/05 07:47:47;;;;;;;7.33;4.40;;;;;;;;;;4966552;28;20431;-90
2023/08/05 07:50:21;;;;;;;5.23;3.70;;;;;;;;;;4981796;28;20523;-88
2023/08/05 07:52:47;;;;;;;4.50;4.03;;;;;;;;;;4981254;28;20428;-88
2023/08/05 07:55:13;;;;;;;5.20;4.30;;;;;;;;;;4991933;28;20487;-88
2023/08/05 07:57:40;;;;;;;4.93;3.60;;;;;;;;;;4984520;28;20507;-90
2023/08/05 08:00:08;;;;;;;6.80;3.77;;;;;;;;;;5000709;28;20480;-92
2023/08/05 08:02:34;;;;;;;5.87;4.60;;;;;;;;;;4999789;28;20553;-88
2023/08/05 08:05:05;;;;;;;5.60;3.80;;;;;;;;;;5020747;28;20488;-89
2023/08/05 08:07:34;;;;;;;5.23;4.13;;;;;;;;;;5018537;28;20430;-89
2023/08/05 08:10:04;;;;;;;4.60;3.50;;;;;;;;;;5008742;28;20413;-88
2023/08/05 08:12:30;;;;;;;5.10;3.40;;;;;;;;;;4989502;28;20420;-88
2023/08/05 08:14:56;;;;;;;4.57;3.27;;;;;;;;;;4986072;28;20733;-88
2023/08/05 08:17:24;;;;;;;3.80;3.30;;;;;;;;;;4996292;28;20540;-91
2023/08/05 08:19:50;;;;;;;3.00;2.67;;;;;;;;;;5071491;22;20471;-88
2023/08/05 08:22:17;;;;;;;5.00;3.63;;;;;;;;;;5040877;28;20411;-88
2023/08/05 08:24:43;;;;;;;6.80;3.80;;;;;;;;;;5028888;28;20439;-88
2023/08/05 08:27:09;;;;;;;4.07;2.87;;;;;;;;;;5027193;28;20442;-87
2023/08/05 08:29:35;;;;;;;3.70;2.70;;;;;;;;;;5025040;28;20439;-89
2023/08/05 08:32:01;;;;;;;5.37;3.80;;;;;;;;;;5024302;28;20424;-88
2023/08/05 08:34:27;;;;;;;3.73;3.00;;;;;;;;;;5025734;28;20494;-90
2023/08/05 08:36:54;;;;;;;7.10;3.50;;;;;;;;;;5032844;28;20420;-89
2023/08/05 08:39:21;;;;;;;6.33;3.97;;;;;;;;;;5016168;28;21025;-89
2023/08/05 08:41:49;;;;;;;6.30;2.60;;;;;;;;;;5027206;28;20434;-89
2023/08/05 08:44:16;;;;;;;3.33;3.03;;;;;;;;;;5034270;28;20514;-90
2023/08/05 08:46:42;;;;;;;2.73;2.37;;;;;;;;;;5003439;28;20423;-90
2023/08/05 08:49:11;;;;;;;5.80;3.30;;;;;;;;;;5009378;28;20466;-92
2023/08/05 08:51:38;;;;;;;4.40;3.50;;;;;;;;;;5022747;28;20523;-91
2023/08/05 08:54:04;;;;;;;4.30;3.33;;;;;;;;;;5025971;28;20526;-89
2023/08/05 08:56:31;;;;;;;4.03;2.80;;;;;;;;;;5000900;28;21079;-87
2023/08/05 08:58:57;;;;;;;5.13;3.00;;;;;;;;;;5027156;28;20431;-89
2023/08/05 09:01:23;;;;;;;4.43;2.90;;;;;;;;;;5006820;28;20458;-91
2023/08/05 09:03:50;;;;;;;4.00;3.10;;;;;;;;;;5023992;28;20455;-91
2023/08/05 09:06:17;;;;;;;3.70;2.80;;;;;;;;;;5010633;28;20591;-91
2023/08/05 09:08:43;;;;;;;4.90;3.30;;;;;;;;;;5008987;28;21174;-89
2023/08/05 09:11:09;;;;;;;4.20;3.23;;;;;;;;;;5010441;28;20447;-90
2023/08/05 09:13:35;;;;;;;3.60;2.90;;;;;;;;;;5011143;28;20426;-90
2023/08/05 09:16:01;;;;;;;3.03;2.47;;;;;;;;;;5014050;28;20453;-91
2023/08/05 09:18:27;;;;;;;4.50;3.13;;;;;;;;;;5004152;28;20435;-91
2023/08/05 09:20:53;;;;;;;4.47;2.47;;;;;;;;;;5013782;28;20435;-90
2023/08/05 09:23:19;;;;;;;3.50;2.83;;;;;;;;;;5008535;28;20411;-91
2023/08/05 09:25:48;;;;;;;3.43;2.87;;;;;;;;;;5008564;28;20416;-90
2023/08/05 09:28:14;;;;;;;3.07;2.50;;;;;;;;;;4994362;28;20423;-90
2023/08/05 09:30:41;;;;;;;3.40;3.10;;;;;;;;;;5024565;28;20822;-90
2023/08/05 09:33:07;;;;;;;3.30;2.90;;;;;;;;;;5028953;28;20447;-91
2023/08/05 09:35:33;;;;;;;4.70;3.17;;;;;;;;;;5027004;28;20455;-90
2023/08/05 09:38:01;;;;;;;4.10;3.20;;;;;;;;;;5027816;28;20951;-90
2023/08/05 09:40:28;;;;;;;4.50;3.20;;;;;;;;;;5026959;28;20427;-89
2023/08/05 09:42:57;;;;;;;6.13;2.33;;;;;;;;;;5043376;28;20462;-90
2023/08/05 09:45:25;;;;;;;5.00;2.43;;;;;;;;;;5030629;28;20423;-89
2023/08/05 09:47:52;;;;;;;2.90;2.60;;;;;;;;;;5044057;28;20792;-90
2023/08/05 09:50:20;;;;;;;5.43;2.80;;;;;;;;;;5028483;28;20939;-88
2023/08/05 09:52:49;;;;;;;3.00;2.70;;;;;;;;;;5167515;23;20522;-89
2023/08/05 09:55:16;;;;;;;5.00;3.57;;;;;;;;;;5025288;28;20483;-90
2023/08/05 09:57:44;;;;;;;5.43;2.97;;;;;;;;;;5011817;28;20425;-90
2023/08/05 10:00:14;;;;;;;3.03;2.70;;;;;;;;;;5023811;28;20439;-89
2023/08/05 10:02:41;;;;;;;3.70;2.97;;;;;;;;;;5010982;28;20420;-88
2023/08/05 10:05:09;;;;;;;4.03;3.43;;;;;;;;;;5007413;28;20471;-90
2023/08/05 10:07:35;;;;;;;4.27;2.90;;;;;;;;;;5019594;28;20429;-92
2023/08/05 10:10:01;;;;;;;3.90;2.93;;;;;;;;;;5029654;28;20447;-89
2023/08/05 10:12:30;;;;;;;3.63;1.90;;;;;;;;;;5022771;28;20789;-89
2023/08/05 10:14:56;;;;;;;3.83;2.50;;;;;;;;;;5004387;28;20488;-89
2023/08/05 10:17:22;;;;;;;2.87;2.30;;;;;;;;;;5024708;28;20405;-89
2023/08/05 10:19:50;;;;;;;2.60;2.40;;;;;;;;;;5021697;28;20419;-90
2023/08/05 10:22:21;;;;;;;3.17;2.40;;;;;;;;;;5028251;28;20448;-89
2023/08/05 10:24:50;;;;;;;3.50;3.10;;;;;;;;;;5012075;28;20428;-89
2023/08/05 10:27:16;;;;;;;4.10;3.37;;;;;;;;;;5014041;28;20517;-91
2023/08/05 10:29:52;;;;;;;5.43;2.53;;;;;;;;;;5026186;28;20432;-90
2023/08/05 10:32:18;;;;;;;5.60;2.77;;;;;;;;;;5023661;28;20805;-90
2023/08/05 10:34:44;;;;;;;4.93;2.67;;;;;;;;;;5003006;28;20459;-90
2023/08/05 10:37:10;;;;;;;3.77;3.17;;;;;;;;;;4999301;28;20465;-90
2023/08/05 10:39:36;;;;;;;3.70;2.80;;;;;;;;;;5022452;28;20416;-88
2023/08/05 10:42:18;;;;;;;3.87;3.43;;;;;;;;;;5015959;28;20809;-90
2023/08/05 10:44:44;;;;;;;3.97;3.10;;;;;;;;;;5004288;28;20401;-90
2023/08/05 10:47:10;;;;;;;3.10;2.60;;;;;;;;;;5023635;28;20961;-90
2023/08/05 10:49:36;;;;;;;4.80;3.00;;;;;;;;;;5005864;28;20427;-91
2023/08/05 10:52:03;;;;;;;3.83;2.80;;;;;;;;;;5024452;28;20462;-91
2023/08/05 10:54:32;;;;;;;5.23;3.47;;;;;;;;;;5010403;28;20547;-90
2023/08/05 10:56:58;;;;;;;3.23;2.93;;;;;;;;;;5010568;28;20470;-88
2023/08/05 10:59:24;;;;;;;3.00;2.70;;;;;;;;;;5007553;28;20482;-90
2023/08/05 11:01:54;;;;;;;4.27;2.60;;;;;;;;;;5002538;28;20424;-89
2023/08/05 11:04:30;;;;;;;3.27;2.60;;;;;;;;;;5004881;28;20420;-90
2023/08/05 11:07:00;;;;;;;7.73;3.70;;;;;;;;;;5030043;28;20427;-89
2023/08/05 11:09:35;;;;;;;5.13;2.73;;;;;;;;;;5006130;28;20444;-90
2023/08/05 11:12:01;;;;;;;3.80;3.27;;;;;;;;;;5007088;28;20438;-90
2023/08/05 11:14:27;;;;;;;3.67;2.97;;;;;;;;;;4997439;28;20437;-89
2023/08/05 11:16:59;;;;;;;3.43;2.73;;;;;;;;;;5020062;28;20436;-90
2023/08/05 11:19:25;;;;;;;4.47;2.87;;;;;;;;;;5025397;28;20432;-89
2023/08/05 11:21:51;;;;;;;3.70;3.10;;;;;;;;;;5004413;28;20428;-89
2023/08/05 11:24:17;;;;;;;4.60;3.00;;;;;;;;;;5007637;28;20441;-90
2023/08/05 11:26:44;;;;;;;3.60;3.30;;;;;;;;;;5016694;28;20517;-90
2023/08/05 11:29:10;;;;;;;3.50;2.80;;;;;;;;;;5019593;28;20460;-90
2023/08/05 11:31:36;;;;;;;4.00;3.20;;;;;;;;;;5002393;28;20533;-89
2023/08/05 11:34:02;;;;;;;3.47;2.83;;;;;;;;;;5040018;28;20480;-90
2023/08/05 11:36:28;;;;;;;3.53;2.87;;;;;;;;;;5002355;28;20449;-89
2023/08/05 11:38:57;;;;;;;3.00;2.50;;;;;;;;;;5006990;28;20412;-90
2023/08/05 11:41:24;;;;;;;4.33;2.50;;;;;;;;;;5002818;28;20436;-90
2023/08/05 11:43:50;;;;;;;3.60;2.60;;;;;;;;;;5005324;28;20424;-90
2023/08/05 11:46:26;;;;;;;2.90;2.40;;;;;;;;;;5023142;28;20507;-90
2023/08/05 11:49:08;;;;;;;2.77;2.37;;;;;;;;;;5004119;28;20863;-90
2023/08/05 11:51:44;;;;;;;3.50;2.67;;;;;;;;;;5022122;28;20467;-90
2023/08/05 11:54:10;;;;;;;3.50;2.73;;;;;;;;;;5020652;28;20456;-91
2023/08/05 11:56:36;;;;;;;2.60;2.00;;;;;;;;;;5001054;28;20436;-90
2023/08/05 11:59:02;;;;;;;3.10;2.50;;;;;;;;;;5023030;28;21059;-91
2023/08/05 12:01:28;;;;;;;3.20;2.43;;;;;;;;;;5007163;28;20500;-89
2023/08/05 12:03:57;;;;;;;3.30;3.00;;;;;;;;;;5023525;28;20503;-89
2023/08/05 12:06:29;;;;;;;3.33;2.70;;;;;;;;;;5006875;28;20440;-89
2023/08/05 12:08:59;;;;;;;3.20;2.60;;;;;;;;;;5009579;28;20432;-89
2023/08/05 12:11:25;;;;;;;4.27;3.00;;;;;;;;;;5005788;28;20432;-88
2023/08/05 12:13:51;;;;;;;3.80;2.90;;;;;;;;;;4988876;28;20998;-89
2023/08/05 12:16:19;;;;;;;5.87;2.77;;;;;;;;;;5018696;28;20524;-89
2023/08/05 12:18:45;;;;;;;4.60;3.07;;;;;;;;;;5005110;28;20442;-88
2023/08/05 12:21:12;;;;;;;4.07;3.17;;;;;;;;;;5014754;28;20430;-88
2023/08/05 12:23:41;;;;;;;4.03;3.10;;;;;;;;;;5003405;28;20425;-89
2023/08/05 12:26:10;;;;;;;4.57;3.30;;;;;;;;;;4990675;28;20428;-88
2023/08/05 12:28:37;;;;;;;4.93;2.77;;;;;;;;;;4991209;28;20443;-88
2023/08/05 12:31:03;;;;;;;4.70;3.27;;;;;;;;;;5007687;28;20527;-89
2023/08/05 12:33:29;;;;;;;3.20;2.70;;;;;;;;;;4997194;28;20443;-89
2023/08/05 12:35:56;;;;;;;4.30;2.97;;;;;;;;;;4989303;28;20416;-89
2023/08/05 12:38:22;;;;;;;5.20;3.50;;;;;;;;;;5018902;28;20424;-88
2023/08/05 12:40:48;;;;;;;3.40;2.70;;;;;;;;;;5007363;28;20424;-88
2023/08/05 12:43:14;;;;;;;4.63;2.93;;;;;;;;;;4994249;28;20432;-88
2023/08/05 12:45:40;;;;;;;5.77;3.13;;;;;;;;;;4988410;28;20409;-88
2023/08/05 12:48:06;;;;;;;4.53;2.90;;;;;;;;;;5003067;28;20435;-88
2023/08/05 12:50:40;;;;;;;4.17;3.57;;;;;;;;;;5014839;28;20415;-88
2023/08/05 12:53:06;;;;;;;5.27;4.30;;;;;;;;;;5013932;28;20460;-88
2023/08/05 12:55:32;;;;;;;4.37;3.90;;;;;;;;;;5021496;28;20455;-89
2023/08/05 12:57:58;;;;;;;4.27;3.30;;;;;;;;;;5021011;28;20436;-88
2023/08/05 13:00:25;;;;;;;5.87;2.97;;;;;;;;;;5023457;28;20419;-88
2023/08/05 13:02:51;;;;;;;6.10;3.03;;;;;;;;;;5005717;28;20957;-88
2023/08/05 13:05:17;;;;;;;4.77;3.27;;;;;;;;;;4992350;28;20467;-88
2023/08/05 13:07:43;;;;;;;4.40;3.40;;;;;;;;;;5024801;28;20443;-88
2023/08/05 13:10:09;;;;;;;3.50;3.00;;;;;;;;;;5005095;28;20429;-89
2023/08/05 13:12:35;;;;;;;3.30;3.00;;;;;;;;;;5019664;28;20447;-90
2023/08/05 13:15:03;;;;;;;5.03;4.03;;;;;;;;;;5016843;28;20854;-90
2023/08/05 13:17:29;;;;;;;7.97;4.40;;;;;;;;;;5019848;28;20463;-89
2023/08/05 13:19:55;;;;;;;3.83;3.20;;;;;;;;;;5021619;28;20411;-90
2023/08/05 13:22:21;;;;;;;8.93;2.80;;;;;;;;;;5021485;28;21008;-91
2023/08/05 13:24:47;;;;;;;3.30;2.50;;;;;;;;;;5015625;28;20449;-89
2023/08/05 13:27:13;;;;;;;3.37;2.43;;;;;;;;;;5018671;28;20431;-89
2023/08/05 13:29:39;;;;;;;3.27;2.57;;;;;;;;;;5001719;28;20460;-89
2023/08/05 13:32:06;;;;;;;4.53;2.70;;;;;;;;;;5017133;28;20420;-90
2023/08/05 13:34:32;;;;;;;4.10;2.63;;;;;;;;;;5003786;28;20463;-90
2023/08/05 13:36:58;;;;;;;4.63;3.03;;;;;;;;;;5012941;28;20443;-89
2023/08/05 13:39:24;;;;;;;3.57;2.77;;;;;;;;;;5018579;28;20435;-89
2023/08/05 13:41:56;;;;;;;4.27;2.60;;;;;;;;;;5012492;28;20440;-89
2023/08/05 13:44:22;;;;;;;3.80;3.40;;;;;;;;;;4992128;28;20435;-88
2023/08/05 13:46:49;;;;;;;2.90;2.60;;;;;;;;;;5018027;28;20436;-89
2023/08/05 13:49:15;;;;;;;7.87;4.60;;;;;;;;;;5018680;28;20424;-89
2023/08/05 13:51:41;;;;;;;4.43;3.83;;;;;;;;;;5000772;28;20488;-87
2023/08/05 13:54:10;;;;;;;4.23;2.87;;;;;;;;;;4964783;28;20527;-88
2023/08/05 13:56:36;;;;;;;3.80;3.20;;;;;;;;;;4978895;28;20417;-87
2023/08/05 13:59:02;;;;;;;4.93;4.07;;;;;;;;;;4981324;28;20433;-88
2023/08/05 14:01:29;;;;;;;7.60;4.00;;;;;;;;;;4983028;28;20505;-88
2023/08/05 14:03:55;;;;;;;7.80;2.87;;;;;;;;;;4965318;28;21258;-87
2023/08/05 14:06:27;;;;;;;14.40;8.90;;;;;;;;;;4969964;28;20421;-88
2023/08/05 14:08:53;;;;;;;7.40;3.77;;;;;;;;;;4969332;28;20473;-90
2023/08/05 14:11:20;;;;;;;4.50;3.80;;;;;;;;;;4990439;28;20500;-88
2023/08/05 14:13:46;;;;;;;3.90;3.50;;;;;;;;;;4970027;28;20496;-88
2023/08/05 14:16:12;;;;;;;4.47;3.57;;;;;;;;;;5003933;28;20975;-89
2023/08/05 14:18:38;;;;;;;6.63;3.57;;;;;;;;;;4976760;28;20425;-88
2023/08/05 14:21:06;;;;;;;3.23;2.50;;;;;;;;;;4980757;28;20449;-88
2023/08/05 14:23:32;;;;;;;5.03;2.90;;;;;;;;;;5020100;28;20411;-88
2023/08/05 14:25:58;;;;;;;3.30;2.93;;;;;;;;;;5002424;28;20487;-89
2023/08/05 14:28:25;;;;;;;3.07;2.77;;;;;;;;;;5040474;28;20432;-88
2023/08/05 14:30:51;;;;;;;6.40;2.77;;;;;;;;;;5007997;28;20456;-88
2023/08/05 14:33:17;;;;;;;4.77;3.27;;;;;;;;;;5017959;28;20581;-88
2023/08/05 14:35:43;;;;;;;3.80;2.63;;;;;;;;;;5016594;28;20494;-88
2023/08/05 14:38:12;;;;;;;3.10;2.53;;;;;;;;;;5023797;28;20447;-88
2023/08/05 14:40:38;;;;;;;2.93;2.27;;;;;;;;;;5010289;28;20463;-88
2023/08/05 14:43:04;;;;;;;3.00;2.70;;;;;;;;;;5021975;28;20412;-88
2023/08/05 14:45:31;;;;;;;2.97;2.30;;;;;;;;;;5001271;28;20421;-89
2023/08/05 14:47:57;;;;;;;4.67;3.30;;;;;;;;;;5028315;28;20424;-89
2023/08/05 14:50:23;;;;;;;4.60;2.90;;;;;;;;;;5000840;28;20425;-88